Time;durP1;ratioP1;P1;durP2;ratioP2;P2;SDS_P1;SDS_P2;PMS_P1;PMS_P2;Temp;Humidity;BMP_temperature;BMP_pressure;BME280_temperature;BME280_humidity;BME280_pressure;Samples;Min_cycle;Max_cycle;Signal;HPM_P1;HPM_P2
2023/06/07 00:03:09;;;;;;;7.10;5.65;;;;;13.10;96393.00;;;;8325024;28;20227;-77
2023/06/07 00:07:12;;;;;;;7.80;6.00;;;;;13.00;96391.00;;;;8330182;28;20571;-78
2023/06/07 00:11:16;;;;;;;6.60;5.65;;;;;13.00;96394.00;;;;8317788;28;20223;-78
2023/06/07 00:15:19;;;;;;;6.90;6.20;;;;;12.90;96393.00;;;;8328490;28;20221;-79
2023/06/07 00:19:25;;;;;;;10.20;6.78;;;;;12.80;96381.00;;;;8330400;28;20250;-75
2023/06/07 00:23:31;;;;;;;8.80;6.72;;;;;12.80;96388.00;;;;8336300;28;20297;-76
2023/06/07 00:27:34;;;;;;;8.25;5.80;;;;;12.80;96380.00;;;;8329003;28;20219;-73
2023/06/07 00:31:40;;;;;;;9.23;6.13;;;;;12.70;96383.00;;;;8326225;28;20287;-79
2023/06/07 00:35:45;;;;;;;9.95;6.30;;;;;12.60;96380.00;;;;8333086;28;20197;-81
2023/06/07 00:39:48;;;;;;;7.82;6.65;;;;;12.60;96383.00;;;;8332187;28;20287;-77
2023/06/07 00:43:52;;;;;;;6.60;5.40;;;;;12.40;96372.00;;;;8326592;28;20331;-81
2023/06/07 00:48:01;;;;;;;9.68;6.32;;;;;12.40;96380.00;;;;8330189;28;20258;-79
2023/06/07 00:52:08;;;;;;;10.20;7.10;;;;;12.30;96370.00;;;;8328425;28;20656;-82
2023/06/07 00:56:12;;;;;;;7.80;6.57;;;;;12.30;96366.00;;;;8324064;28;20276;-78
2023/06/07 01:00:18;;;;;;;10.32;6.70;;;;;12.20;96370.00;;;;8324924;28;20199;-79
2023/06/07 01:04:26;;;;;;;11.48;7.13;;;;;12.20;96359.00;;;;8329037;28;20280;-81
2023/06/07 01:08:31;;;;;;;10.13;6.70;;;;;12.10;96361.00;;;;8330854;28;20235;-79
2023/06/07 01:12:36;;;;;;;8.23;6.45;;;;;12.00;96362.00;;;;8328532;28;20683;-78
2023/06/07 01:16:48;;;;;;;10.15;6.63;;;;;12.00;96367.00;;;;8322055;28;20237;-79
2023/06/07 01:20:56;;;;;;;10.25;7.32;;;;;11.90;96360.00;;;;8329259;28;20203;-82
2023/06/07 01:25:02;;;;;;;9.07;7.20;;;;;11.90;96356.00;;;;8326801;28;20212;-75
2023/06/07 01:29:07;;;;;;;8.15;6.85;;;;;11.80;96360.00;;;;8333953;28;20713;-78
2023/06/07 01:33:10;;;;;;;12.52;6.72;;;;;11.80;96351.00;;;;8325856;28;20215;-75
2023/06/07 01:37:13;;;;;;;8.15;5.93;;;;;11.70;96356.00;;;;8325295;28;20231;-80
2023/06/07 01:41:21;;;;;;;9.20;6.72;;;;;11.60;96359.00;;;;8321983;28;20256;-75
2023/06/07 01:45:25;;;;;;;9.30;7.18;;;;;11.60;96357.00;;;;8325851;28;20308;-75
2023/06/07 01:49:28;;;;;;;11.52;7.60;;;;;11.50;96352.00;;;;8326773;28;20234;-75
2023/06/07 01:53:32;;;;;;;8.98;7.30;;;;;11.40;96353.00;;;;8329874;28;20563;-74
2023/06/07 01:57:50;;;;;;;9.48;7.10;;;;;11.40;96355.00;;;;8323502;28;20221;-74
2023/06/07 02:02:01;;;;;;;12.05;7.50;;;;;11.40;96349.00;;;;8320194;28;20205;-75
2023/06/07 02:06:09;;;;;;;12.07;7.82;;;;;11.30;96351.00;;;;8331790;28;20243;-73
2023/06/07 02:10:14;;;;;;;12.43;7.85;;;;;11.20;96356.00;;;;8336243;28;20292;-75
2023/06/07 02:14:20;;;;;;;11.68;7.50;;;;;11.20;96353.00;;;;8339213;28;20234;-72
2023/06/07 02:18:25;;;;;;;9.60;7.03;;;;;11.20;96362.00;;;;8334369;28;20221;-74
2023/06/07 02:22:28;;;;;;;12.27;8.45;;;;;11.20;96362.00;;;;8343379;28;20203;-75
2023/06/07 02:26:33;;;;;;;15.60;8.68;;;;;11.20;96358.00;;;;8335315;28;20230;-75
2023/06/07 02:30:47;;;;;;;15.57;9.55;;;;;11.30;96364.00;;;;8332412;28;20238;-76
2023/06/07 02:34:51;;;;;;;19.80;11.02;;;;;11.50;96366.00;;;;8327950;28;20301;-79
2023/06/07 02:38:57;;;;;;;15.52;9.90;;;;;11.60;96365.00;;;;8327186;28;20234;-76
2023/06/07 02:43:00;;;;;;;16.10;9.02;;;;;11.80;96373.00;;;;8328182;28;20211;-80
2023/06/07 02:47:08;;;;;;;16.42;9.27;;;;;12.00;96358.00;;;;8340492;28;20201;-75
2023/06/07 02:51:17;;;;;;;16.10;9.10;;;;;12.20;96358.00;;;;8341505;28;20871;-76
2023/06/07 02:55:23;;;;;;;16.88;9.82;;;;;12.40;96357.00;;;;8331302;28;20200;-77
2023/06/07 02:59:26;;;;;;;31.35;15.30;;;;;12.60;96354.00;;;;8332550;28;20316;-75
2023/06/07 03:03:38;;;;;;;22.67;11.63;;;;;12.90;96349.00;;;;8346066;23;20264;-95
2023/06/07 03:07:46;;;;;;;32.97;16.05;;;;;12.90;96354.00;;;;8322188;28;20230;-96
2023/06/07 03:11:51;;;;;;;18.40;10.38;;;;;12.90;96345.00;;;;8323181;28;20247;-95
2023/06/07 03:16:27;;;;;;;16.45;9.68;;;;;12.80;96354.00;;;;8324074;28;20201;-96
2023/06/07 03:25:27;;;;;;;14.05;9.20;;;;;12.60;96369.00;;;;8324150;28;20204;-96
2023/06/07 03:29:34;;;;;;;13.50;8.93;;;;;12.50;96366.00;;;;8334796;23;20228;-81
2023/06/07 03:33:38;;;;;;;11.60;8.40;;;;;12.50;96372.00;;;;8305592;28;20298;-80
2023/06/07 03:37:43;;;;;;;13.02;9.07;;;;;12.50;96375.00;;;;8303853;28;20309;-80
2023/06/07 03:41:46;;;;;;;13.02;8.30;;;;;12.60;96369.00;;;;8313048;28;20622;-74
2023/06/07 03:45:49;;;;;;;12.90;8.90;;;;;12.60;96370.00;;;;8302126;28;20263;-78
2023/06/07 03:49:55;;;;;;;16.83;9.63;;;;;12.60;96370.00;;;;8291305;28;20206;-76
2023/06/07 03:53:59;;;;;;;12.85;9.48;;;;;12.60;96374.00;;;;8315668;28;20211;-75
2023/06/07 03:58:03;;;;;;;13.13;8.88;;;;;12.70;96377.00;;;;8309996;28;20231;-77
2023/06/07 04:02:07;;;;;;;15.23;9.60;;;;;12.80;96381.00;;;;8309202;28;20868;-76
2023/06/07 04:06:14;;;;;;;13.35;9.38;;;;;12.80;96380.00;;;;8283433;28;20202;-75
2023/06/07 04:10:18;;;;;;;13.10;9.05;;;;;13.00;96378.00;;;;8287222;28;20228;-77
2023/06/07 04:14:24;;;;;;;13.00;9.13;;;;;13.40;96389.00;;;;8286634;28;20689;-79
2023/06/07 04:18:34;;;;;;;14.73;8.45;;;;;13.80;96388.00;;;;8276020;28;20232;-77
2023/06/07 04:22:37;;;;;;;11.98;7.82;;;;;14.00;96390.00;;;;8285433;28;20639;-77
2023/06/07 04:26:44;;;;;;;12.68;8.77;;;;;14.40;96392.00;;;;8282443;28;20202;-80
2023/06/07 04:30:47;;;;;;;10.20;7.90;;;;;14.80;96389.00;;;;8274209;28;20206;-77
2023/06/07 04:34:52;;;;;;;14.35;9.32;;;;;15.20;96393.00;;;;8271240;28;20567;-75
2023/06/07 04:38:58;;;;;;;214.55;18.75;;;;;15.50;96394.00;;;;8273820;28;20234;-78
2023/06/07 04:43:12;;;;;;;41.50;10.35;;;;;15.80;96401.00;;;;8275878;28;20205;-78
2023/06/07 04:47:17;;;;;;;23.40;8.70;;;;;15.90;96400.00;;;;8266635;28;20222;-76
2023/06/07 04:51:22;;;;;;;14.35;9.10;;;;;16.10;96403.00;;;;8273549;28;20198;-76
2023/06/07 04:55:28;;;;;;;10.05;8.70;;;;;16.40;96403.00;;;;8256838;28;20206;-75
2023/06/07 04:59:42;;;;;;;15.07;10.00;;;;;16.70;96407.00;;;;8260646;28;20280;-73
2023/06/07 05:03:50;;;;;;;12.90;10.30;;;;;17.20;96406.00;;;;8263463;28;20238;-74
2023/06/07 05:07:55;;;;;;;13.23;10.80;;;;;17.60;96412.00;;;;8267687;28;20202;-79
2023/06/07 05:11:58;;;;;;;14.32;9.80;;;;;17.70;96417.00;;;;8280796;28;20289;-76
2023/06/07 05:16:03;;;;;;;13.68;9.70;;;;;17.80;96414.00;;;;8279706;28;20281;-76
2023/06/07 05:20:12;;;;;;;38.95;10.60;;;;;18.00;96419.00;;;;8258999;28;20233;-74
2023/06/07 05:24:15;;;;;;;12.30;10.10;;;;;18.40;96426.00;;;;8268448;28;20259;-74
2023/06/07 05:28:19;;;;;;;17.10;11.10;;;;;18.40;96425.00;;;;8263116;28;20258;-77
2023/06/07 05:32:24;;;;;;;13.88;10.57;;;;;18.40;96434.00;;;;8279358;28;20725;-79
2023/06/07 05:36:29;;;;;;;13.70;10.95;;;;;18.50;96428.00;;;;8274920;28;20249;-78
2023/06/07 05:40:33;;;;;;;16.63;10.88;;;;;18.60;96431.00;;;;8275866;28;20329;-77
2023/06/07 05:44:38;;;;;;;18.67;11.77;;;;;18.70;96426.00;;;;8278815;28;20203;-75
2023/06/07 05:48:42;;;;;;;15.30;10.98;;;;;18.90;96433.00;;;;8273076;28;20654;-76
2023/06/07 05:52:45;;;;;;;14.98;11.13;;;;;19.10;96438.00;;;;8274566;28;20234;-76
2023/06/07 05:56:54;;;;;;;14.68;11.40;;;;;19.30;96440.00;;;;8276294;28;20209;-72
2023/06/07 06:00:58;;;;;;;17.80;13.45;;;;;19.50;96437.00;;;;8274596;28;20241;-73
2023/06/07 06:05:02;;;;;;;21.08;14.90;;;;;19.80;96441.00;;;;8275131;28;20222;-72
2023/06/07 06:09:07;;;;;;;22.13;15.82;;;;;19.90;96448.00;;;;8273802;28;20663;-72
2023/06/07 06:13:10;;;;;;;21.73;15.45;;;;;19.80;96445.00;;;;8276073;28;20640;-71
2023/06/07 06:17:13;;;;;;;22.58;15.45;;;;;19.70;96444.00;;;;8276384;28;20298;-72
2023/06/07 06:21:18;;;;;;;20.70;15.38;;;;;19.90;96446.00;;;;8265278;28;20588;-72
2023/06/07 06:25:25;;;;;;;19.33;14.85;;;;;20.10;96454.00;;;;8265884;28;20202;-73
2023/06/07 06:29:29;;;;;;;22.95;16.38;;;;;20.10;96460.00;;;;8273969;28;20766;-72
2023/06/07 06:33:35;;;;;;;21.42;15.88;;;;;20.00;96456.00;;;;8277009;28;20201;-72
2023/06/07 06:37:39;;;;;;;23.60;16.17;;;;;20.00;96453.00;;;;8278638;28;20962;-72
2023/06/07 06:41:43;;;;;;;20.15;15.50;;;;;20.00;96464.00;;;;8272196;28;20198;-72
2023/06/07 06:45:46;;;;;;;20.85;14.95;;;;;20.00;96459.00;;;;8279803;28;20201;-71
2023/06/07 06:49:53;;;;;;;20.65;13.95;;;;;20.20;96456.00;;;;8275979;28;20217;-71
2023/06/07 06:53:58;;;;;;;19.30;15.00;;;;;20.40;96456.00;;;;8277469;28;20241;-71
2023/06/07 06:58:02;;;;;;;21.95;15.07;;;;;20.30;96458.00;;;;8275830;28;20292;-72
2023/06/07 07:02:08;;;;;;;20.00;15.35;;;;;20.40;96461.00;;;;8266624;28;20305;-72
2023/06/07 07:06:11;;;;;;;21.25;15.43;;;;;21.10;96469.00;;;;8270197;28;20654;-72
2023/06/07 07:10:18;;;;;;;21.58;15.63;;;;;21.20;96463.00;;;;8278236;28;20194;-72
2023/06/07 07:14:21;;;;;;;20.08;16.23;;;;;21.50;96467.00;;;;8279740;28;20674;-72
2023/06/07 07:18:27;;;;;;;20.35;14.55;;;;;21.70;96473.00;;;;8278794;28;20363;-71
2023/06/07 07:22:30;;;;;;;17.95;14.55;;;;;21.70;96473.00;;;;8273868;28;20212;-72
2023/06/07 07:26:39;;;;;;;17.02;13.50;;;;;21.50;96464.00;;;;8274826;28;20206;-72
2023/06/07 07:30:42;;;;;;;22.63;14.25;;;;;21.60;96470.00;;;;8283802;28;20221;-72
2023/06/07 07:34:45;;;;;;;17.38;13.65;;;;;22.60;96472.00;;;;8279575;28;20198;-72
2023/06/07 07:38:49;;;;;;;17.00;12.48;;;;;23.40;96465.00;;;;8281997;28;20249;-72
2023/06/07 07:42:53;;;;;;;17.63;12.63;;;;;23.50;96463.00;;;;8281111;28;20285;-72
2023/06/07 07:46:57;;;;;;;18.42;12.35;;;;;24.10;96469.00;;;;8282738;28;20233;-72
2023/06/07 07:51:03;;;;;;;14.55;11.23;;;;;24.90;96462.00;;;;8282223;28;20832;-72
2023/06/07 07:55:08;;;;;;;14.02;11.05;;;;;25.00;96463.00;;;;8278032;28;20201;-71
2023/06/07 07:59:14;;;;;;;29.67;20.58;;;;;25.60;96461.00;;;;8274782;28;20615;-73
2023/06/07 08:03:17;;;;;;;12.43;10.63;;;;;25.50;96463.00;;;;8275528;28;20220;-73
2023/06/07 08:07:21;;;;;;;37.13;10.68;;;;;25.70;96459.00;;;;8271624;28;20202;-73
2023/06/07 08:11:25;;;;;;;14.15;9.82;;;;;26.00;96453.00;;;;8279177;28;20202;-74
2023/06/07 08:15:31;;;;;;;12.05;9.82;;;;;26.20;96461.00;;;;8273530;28;20202;-74
2023/06/07 08:19:40;;;;;;;12.02;9.63;;;;;25.50;96460.00;;;;8274094;28;20258;-75
2023/06/07 08:23:44;;;;;;;12.57;10.20;;;;;25.80;96458.00;;;;8277538;28;20261;-73
2023/06/07 08:27:48;;;;;;;11.05;9.85;;;;;25.60;96457.00;;;;8266945;28;20199;-73
2023/06/07 08:31:53;;;;;;;15.27;9.73;;;;;25.40;96455.00;;;;8276091;28;20672;-73
2023/06/07 08:35:56;;;;;;;11.10;9.25;;;;;24.80;96459.00;;;;8280910;28;20202;-75
2023/06/07 08:40:00;;;;;;;8.52;7.15;;;;;25.50;96463.00;;;;8260375;28;20313;-74
2023/06/07 08:44:05;;;;;;;7.15;6.47;;;;;26.70;96453.00;;;;8272043;28;20206;-77
2023/06/07 08:48:13;;;;;;;9.57;8.10;;;;;27.50;96452.00;;;;8277489;28;20281;-76
2023/06/07 08:52:23;;;;;;;8.75;7.85;;;;;26.90;96458.00;;;;8265491;28;20198;-75
2023/06/07 08:56:35;;;;;;;8.98;8.07;;;;;27.00;96456.00;;;;8267296;28;20237;-74
2023/06/07 09:00:42;;;;;;;8.20;7.40;;;;;27.80;96454.00;;;;8270950;28;20292;-74
2023/06/07 09:04:48;;;;;;;7.93;6.93;;;;;28.30;96453.00;;;;8268481;28;20245;-74
2023/06/07 09:08:51;;;;;;;13.90;6.78;;;;;28.50;96460.00;;;;8270816;28;20289;-73
2023/06/07 09:12:54;;;;;;;7.30;6.45;;;;;28.90;96462.00;;;;8271097;28;20202;-73
2023/06/07 09:16:59;;;;;;;7.05;6.40;;;;;29.50;96461.00;;;;8272506;28;20285;-74
2023/06/07 09:21:20;;;;;;;8.32;5.60;;;;;29.40;96464.00;;;;8274511;28;20776;-74
2023/06/07 09:25:23;;;;;;;9.23;6.25;;;;;28.90;96462.00;;;;8261678;28;20202;-73
2023/06/07 09:29:28;;;;;;;6.43;5.40;;;;;28.30;96464.00;;;;8279944;28;20214;-73
2023/06/07 09:33:33;;;;;;;8.50;5.97;;;;;28.40;96462.00;;;;8265619;28;20210;-73
2023/06/07 09:37:48;;;;;;;8.40;5.72;;;;;28.30;96466.00;;;;8272870;28;20228;-73
2023/06/07 09:41:52;;;;;;;5.57;4.90;;;;;28.60;96463.00;;;;8274328;28;20258;-74
2023/06/07 09:45:56;;;;;;;5.63;5.07;;;;;29.90;96459.00;;;;8274205;28;20218;-74
2023/06/07 09:50:06;;;;;;;5.50;4.90;;;;;31.20;96460.00;;;;8277154;28;20540;-75
2023/06/07 09:54:11;;;;;;;5.03;4.63;;;;;31.90;96453.00;;;;8276995;28;20206;-74
2023/06/07 09:58:24;;;;;;;6.32;4.20;;;;;32.70;96462.00;;;;8271097;28;20656;-74
2023/06/07 10:02:29;;;;;;;5.25;4.60;;;;;33.70;96456.00;;;;8271032;28;20225;-74
2023/06/07 10:06:34;;;;;;;4.90;4.32;;;;;34.70;96456.00;;;;8270670;28;20226;-74
2023/06/07 10:10:41;;;;;;;4.32;3.90;;;;;35.40;96457.00;;;;8268910;28;20316;-73
2023/06/07 10:14:49;;;;;;;4.10;3.80;;;;;35.90;96456.00;;;;8276144;28;20285;-74
2023/06/07 10:18:57;;;;;;;5.43;4.00;;;;;36.40;96455.00;;;;8267821;28;20722;-75
2023/06/07 10:23:05;;;;;;;4.22;3.83;;;;;34.90;96457.00;;;;8272702;28;20639;-74
2023/06/07 10:27:15;;;;;;;4.68;4.05;;;;;34.20;96453.00;;;;8272599;28;20206;-74
2023/06/07 10:31:19;;;;;;;5.40;4.00;;;;;34.50;96450.00;;;;8263114;28;20214;-73
2023/06/07 10:35:24;;;;;;;4.28;3.88;;;;;34.60;96442.00;;;;8273042;28;20571;-73
2023/06/07 10:39:33;;;;;;;4.40;3.83;;;;;35.30;96457.00;;;;8275242;28;20289;-73
2023/06/07 10:43:39;;;;;;;4.28;3.88;;;;;34.10;96444.00;;;;8271675;28;20560;-73
2023/06/07 10:47:42;;;;;;;4.47;4.18;;;;;34.20;96448.00;;;;8273545;28;20250;-73
2023/06/07 10:52:06;;;;;;;5.18;4.32;;;;;35.30;96445.00;;;;8270827;28;20198;-75
2023/06/07 10:56:27;;;;;;;4.35;3.92;;;;;34.90;96438.00;;;;8270387;28;20202;-75
2023/06/07 11:00:38;;;;;;;4.32;3.97;;;;;33.10;96439.00;;;;8273122;28;20230;-74
2023/06/07 11:04:59;;;;;;;6.88;4.30;;;;;32.10;96432.00;;;;8274953;28;20222;-73
2023/06/07 11:09:19;;;;;;;5.68;4.18;;;;;32.70;96428.00;;;;8277253;28;20206;-73
2023/06/07 11:13:27;;;;;;;5.18;4.40;;;;;33.60;96425.00;;;;8280716;28;20928;-73
2023/06/07 11:17:53;;;;;;;5.93;4.85;;;;;33.40;96431.00;;;;8278128;28;20214;-72
2023/06/07 11:22:07;;;;;;;4.20;3.90;;;;;33.30;96425.00;;;;8280904;28;20233;-74
2023/06/07 11:26:14;;;;;;;4.25;3.85;;;;;34.00;96425.00;;;;8279202;28;20268;-73
2023/06/07 11:30:18;;;;;;;4.95;3.80;;;;;35.40;96423.00;;;;8284173;28;20623;-74
2023/06/07 11:34:22;;;;;;;4.15;3.78;;;;;36.40;96419.00;;;;8277924;28;20209;-74
2023/06/07 11:38:26;;;;;;;5.35;3.75;;;;;36.70;96419.00;;;;8274922;28;20204;-73
2023/06/07 11:42:30;;;;;;;3.88;3.58;;;;;37.10;96411.00;;;;8272503;28;20293;-73
2023/06/07 11:46:35;;;;;;;4.18;3.88;;;;;37.40;96410.00;;;;8281134;28;20257;-74
2023/06/07 11:50:43;;;;;;;4.25;3.85;;;;;36.70;96407.00;;;;8275621;28;20209;-74
2023/06/07 11:54:46;;;;;;;3.47;3.28;;;;;35.70;96400.00;;;;8276981;28;20229;-75
2023/06/07 11:58:51;;;;;;;4.18;3.60;;;;;34.30;96405.00;;;;8276668;28;20195;-74
2023/06/07 12:03:01;;;;;;;4.10;3.80;;;;;33.10;96398.00;;;;8278960;28;20230;-74
2023/06/07 12:07:31;;;;;;;4.03;3.65;;;;;32.50;96397.00;;;;8272983;28;20264;-74
2023/06/07 12:11:39;;;;;;;3.83;3.58;;;;;32.30;96394.00;;;;8266069;28;20204;-75
2023/06/07 12:15:46;;;;;;;8.98;3.83;;;;;32.70;96389.00;;;;8273808;28;20272;-76
2023/06/07 12:19:49;;;;;;;6.82;3.55;;;;;33.90;96378.00;;;;8281155;28;20223;-78
2023/06/07 12:23:53;;;;;;;6.22;3.88;;;;;34.10;96373.00;;;;8270312;28;20218;-75
2023/06/07 12:27:58;;;;;;;4.70;3.60;;;;;35.00;96370.00;;;;8277839;28;20317;-72
2023/06/07 12:32:03;;;;;;;4.07;3.78;;;;;35.20;96372.00;;;;8274310;28;20751;-75
2023/06/07 12:36:06;;;;;;;3.30;3.10;;;;;35.10;96361.00;;;;8279553;28;20209;-80
2023/06/07 12:40:12;;;;;;;4.38;3.30;;;;;35.50;96363.00;;;;8276841;28;20248;-79
2023/06/07 12:44:15;;;;;;;4.00;3.63;;;;;35.80;96355.00;;;;8278870;28;20208;-78
2023/06/07 12:48:18;;;;;;;4.55;4.15;;;;;35.70;96352.00;;;;8274918;28;20225;-82
2023/06/07 12:52:21;;;;;;;5.25;3.60;;;;;35.00;96350.00;;;;8279610;28;20595;-72
2023/06/07 12:56:26;;;;;;;6.63;3.72;;;;;34.70;96351.00;;;;8273685;28;20245;-77
2023/06/07 13:00:29;;;;;;;3.70;3.40;;;;;34.10;96345.00;;;;8280953;28;20307;-80
2023/06/07 13:04:34;;;;;;;5.82;3.30;;;;;33.80;96347.00;;;;8277152;28;20238;-77
2023/06/07 13:08:38;;;;;;;23.00;4.53;;;;;33.80;96347.00;;;;8273573;28;20194;-74
2023/06/07 13:12:48;;;;;;;3.70;3.40;;;;;34.40;96349.00;;;;8280593;28;20237;-79
2023/06/07 13:16:51;;;;;;;4.57;3.40;;;;;34.60;96344.00;;;;8277169;28;20909;-76
2023/06/07 13:20:57;;;;;;;4.28;3.40;;;;;34.80;96342.00;;;;8278607;28;20322;-74
2023/06/07 13:25:03;;;;;;;3.50;3.20;;;;;35.20;96341.00;;;;8277912;28;20209;-79
2023/06/07 13:29:11;;;;;;;4.85;3.20;;;;;35.60;96334.00;;;;8279612;28;20237;-78
2023/06/07 13:33:21;;;;;;;3.63;3.33;;;;;35.80;96328.00;;;;8275595;28;20202;-80
2023/06/07 13:37:26;;;;;;;3.45;3.15;;;;;36.40;96334.00;;;;8269039;28;20281;-76
2023/06/07 13:41:29;;;;;;;4.85;3.15;;;;;37.00;96339.00;;;;8259737;28;21030;-76
2023/06/07 13:45:36;;;;;;;3.67;3.38;;;;;37.70;96338.00;;;;8276940;28;21921;-76
2023/06/07 13:49:39;;;;;;;3.58;3.10;;;;;38.10;96332.00;;;;8276009;28;20226;-78
2023/06/07 13:53:43;;;;;;;6.38;3.30;;;;;38.20;96322.00;;;;8268671;28;20199;-77
2023/06/07 13:57:51;;;;;;;5.53;3.53;;;;;38.20;96323.00;;;;8275447;28;20255;-78
2023/06/07 14:01:57;;;;;;;3.60;3.30;;;;;37.60;96323.00;;;;8278770;28;20230;-75
2023/06/07 14:06:00;;;;;;;5.07;3.58;;;;;37.40;96318.00;;;;8278667;28;20206;-74
2023/06/07 14:10:03;;;;;;;4.00;3.70;;;;;36.70;96299.00;;;;8266697;28;20221;-71
2023/06/07 14:14:07;;;;;;;8.80;3.65;;;;;36.60;96303.00;;;;8277430;28;20204;-74
2023/06/07 14:18:12;;;;;;;3.85;3.55;;;;;36.90;96294.00;;;;8271737;28;20204;-74
2023/06/07 14:22:16;;;;;;;3.50;3.30;;;;;37.40;96288.00;;;;8274783;28;20230;-74
2023/06/07 14:26:21;;;;;;;2.95;2.75;;;;;37.80;96282.00;;;;8277505;28;20268;-74
2023/06/07 14:30:25;;;;;;;3.58;3.38;;;;;37.70;96287.00;;;;8276443;28;21192;-74
2023/06/07 14:34:30;;;;;;;3.85;3.50;;;;;37.40;96289.00;;;;8279009;28;20312;-74
2023/06/07 14:38:35;;;;;;;3.53;3.22;;;;;36.90;96282.00;;;;8278220;28;20323;-74
2023/06/07 14:42:38;;;;;;;3.33;3.05;;;;;37.30;96278.00;;;;8273308;28;20248;-74
2023/06/07 14:46:41;;;;;;;3.47;3.28;;;;;37.70;96283.00;;;;8269651;28;20201;-75
2023/06/07 14:50:49;;;;;;;3.30;3.10;;;;;37.70;96282.00;;;;8272818;28;20194;-77
2023/06/07 14:54:52;;;;;;;4.13;3.20;;;;;38.00;96271.00;;;;8273582;28;20590;-74
2023/06/07 14:59:00;;;;;;;4.70;3.00;;;;;37.70;96270.00;;;;8280350;28;20615;-75
2023/06/07 15:03:03;;;;;;;4.85;3.30;;;;;37.70;96276.00;;;;8273604;28;20229;-77
2023/06/07 15:07:08;;;;;;;4.50;3.20;;;;;37.60;96280.00;;;;8269383;28;20203;-77
2023/06/07 15:11:16;;;;;;;14.55;3.75;;;;;37.50;96274.00;;;;8272284;28;20205;-74
2023/06/07 15:15:21;;;;;;;3.10;2.90;;;;;37.60;96272.00;;;;8273371;28;20234;-73
2023/06/07 15:19:24;;;;;;;3.60;3.30;;;;;37.60;96267.00;;;;8271316;28;20202;-78
2023/06/07 15:23:32;;;;;;;4.53;3.67;;;;;37.70;96265.00;;;;8274575;28;20929;-77
2023/06/07 15:27:37;;;;;;;3.63;3.30;;;;;37.90;96261.00;;;;8271825;28;20198;-73
2023/06/07 15:31:40;;;;;;;4.00;3.70;;;;;38.00;96260.00;;;;8278894;28;20215;-72
2023/06/07 15:35:51;;;;;;;3.70;3.20;;;;;38.10;96258.00;;;;8259999;28;20207;-73
2023/06/07 15:39:56;;;;;;;3.35;3.13;;;;;38.10;96248.00;;;;8260542;28;20767;-72
2023/06/07 15:43:59;;;;;;;4.80;3.60;;;;;37.90;96247.00;;;;8282776;28;20264;-72
2023/06/07 15:48:02;;;;;;;3.60;3.30;;;;;37.70;96247.00;;;;8266225;28;20210;-72
2023/06/07 15:52:06;;;;;;;4.28;3.50;;;;;37.30;96238.00;;;;8265806;28;20211;-72
2023/06/07 15:56:12;;;;;;;4.10;3.80;;;;;36.70;96237.00;;;;8280682;28;20560;-74
2023/06/07 16:00:18;;;;;;;8.88;4.07;;;;;36.30;96234.00;;;;8271038;28;20202;-75
2023/06/07 16:04:42;;;;;;;5.18;3.90;;;;;36.30;96236.00;;;;8280008;28;20237;-74
2023/06/07 16:08:45;;;;;;;20.73;4.47;;;;;36.40;96236.00;;;;8283316;28;20207;-75
2023/06/07 16:12:55;;;;;;;19.40;4.30;;;;;36.30;96227.00;;;;8277632;28;20202;-75
2023/06/07 16:16:58;;;;;;;4.57;3.55;;;;;36.10;96234.00;;;;8274335;28;20949;-75
2023/06/07 16:21:01;;;;;;;4.63;3.15;;;;;36.30;96227.00;;;;8271615;28;20653;-76
2023/06/07 16:25:05;;;;;;;5.05;3.22;;;;;36.50;96227.00;;;;8273045;28;20222;-75
2023/06/07 16:29:12;;;;;;;4.05;3.38;;;;;36.20;96228.00;;;;8273856;28;20604;-75
2023/06/07 16:33:15;;;;;;;5.78;3.78;;;;;35.60;96229.00;;;;8275438;28;20285;-74
2023/06/07 16:37:22;;;;;;;5.00;3.78;;;;;34.60;96232.00;;;;8279229;28;20210;-75
2023/06/07 16:41:28;;;;;;;7.13;4.05;;;;;34.40;96234.00;;;;8279762;28;20241;-74
2023/06/07 16:45:34;;;;;;;4.60;3.90;;;;;34.30;96229.00;;;;8277009;28;20727;-74
2023/06/07 16:49:37;;;;;;;7.35;3.40;;;;;34.30;96236.00;;;;8274773;28;20289;-73
2023/06/07 16:53:43;;;;;;;4.40;3.63;;;;;34.10;96233.00;;;;8274821;28;21283;-74
2023/06/07 16:57:48;;;;;;;4.22;3.83;;;;;33.40;96245.00;;;;8272130;28;20662;-73
2023/06/07 17:01:55;;;;;;;4.43;4.03;;;;;32.00;96253.00;;;;8282356;28;20233;-73
2023/06/07 17:05:58;;;;;;;6.78;4.30;;;;;30.20;96246.00;;;;8268599;28;20205;-72
2023/06/07 17:10:03;;;;;;;4.80;4.32;;;;;28.90;96252.00;;;;8274782;28;20202;-72
2023/06/07 17:14:07;;;;;;;5.40;4.88;;;;;27.90;96257.00;;;;8268746;28;20552;-71
2023/06/07 17:18:13;;;;;;;4.72;4.32;;;;;27.10;96248.00;;;;8282685;28;20198;-72
2023/06/07 17:22:18;;;;;;;5.68;4.68;;;;;26.70;96253.00;;;;8279582;28;20222;-74
2023/06/07 17:26:26;;;;;;;7.10;4.68;;;;;26.50;96263.00;;;;8281369;28;20257;-74
2023/06/07 17:30:29;;;;;;;6.80;4.97;;;;;26.00;96261.00;;;;8275096;28;20207;-74
2023/06/07 17:34:40;;;;;;;8.07;5.78;;;;;25.50;96253.00;;;;8271670;28;20603;-73
2023/06/07 17:38:43;;;;;;;7.13;5.63;;;;;25.00;96269.00;;;;8284411;28;20611;-72
2023/06/07 17:42:48;;;;;;;7.15;5.50;;;;;24.70;96260.00;;;;8281600;28;20827;-73
2023/06/07 17:46:54;;;;;;;9.05;5.40;;;;;24.50;96259.00;;;;8281026;28;20198;-74
2023/06/07 17:51:01;;;;;;;6.40;5.78;;;;;24.30;96260.00;;;;8277171;28;20602;-74
2023/06/07 17:55:06;;;;;;;6.13;5.43;;;;;24.10;96256.00;;;;8282217;28;20296;-74
2023/06/07 17:59:12;;;;;;;7.90;5.70;;;;;23.90;96252.00;;;;8286287;28;20186;-73
2023/06/07 18:03:19;;;;;;;8.55;5.63;;;;;23.80;96260.00;;;;8275418;28;20257;-73
2023/06/07 18:07:23;;;;;;;9.43;5.95;;;;;23.60;96250.00;;;;8267558;28;20194;-74
2023/06/07 18:11:30;;;;;;;8.65;5.97;;;;;23.50;96252.00;;;;8280348;28;20198;-72
2023/06/07 18:15:34;;;;;;;8.80;6.00;;;;;23.20;96253.00;;;;8282888;28;20194;-75
2023/06/07 18:19:41;;;;;;;7.43;6.13;;;;;22.90;96260.00;;;;8272959;28;20666;-75
2023/06/07 18:23:46;;;;;;;11.75;6.40;;;;;22.70;96263.00;;;;8276183;28;20731;-75
2023/06/07 18:27:49;;;;;;;10.48;5.97;;;;;22.50;96258.00;;;;8273746;28;20202;-75
2023/06/07 18:31:53;;;;;;;12.93;6.00;;;;;22.30;96260.00;;;;8270895;28;20260;-74
2023/06/07 18:35:56;;;;;;;7.15;6.25;;;;;22.10;96265.00;;;;8283028;28;20763;-74
2023/06/07 18:40:02;;;;;;;9.27;6.43;;;;;22.00;96260.00;;;;8272481;28;20198;-74
2023/06/07 18:44:09;;;;;;;9.95;5.80;;;;;21.90;96254.00;;;;8280294;28;20315;-75
2023/06/07 18:48:20;;;;;;;8.18;6.45;;;;;21.80;96258.00;;;;8284088;28;20202;-74
2023/06/07 18:52:26;;;;;;;10.95;6.40;;;;;21.60;96270.00;;;;8274743;28;20206;-74
2023/06/07 18:56:36;;;;;;;12.07;6.28;;;;;21.60;96258.00;;;;8265356;28;20541;-72
2023/06/07 19:00:39;;;;;;;11.15;7.03;;;;;21.50;96258.00;;;;8270553;28;20256;-74
2023/06/07 19:04:46;;;;;;;7.60;6.25;;;;;21.40;96259.00;;;;8278315;28;20261;-75
2023/06/07 19:08:51;;;;;;;9.63;6.70;;;;;21.30;96262.00;;;;8285451;28;20659;-73
2023/06/07 19:13:06;;;;;;;13.75;6.65;;;;;21.10;96273.00;;;;8281377;28;20198;-73
2023/06/07 19:17:10;;;;;;;6.65;5.68;;;;;21.00;96278.00;;;;8274543;28;20202;-76
2023/06/07 19:21:14;;;;;;;7.57;6.43;;;;;20.90;96277.00;;;;8282715;28;20204;-73
2023/06/07 19:25:20;;;;;;;9.52;6.07;;;;;20.80;96285.00;;;;8284261;28;20284;-74
2023/06/07 19:29:25;;;;;;;7.65;6.22;;;;;20.80;96285.00;;;;8275098;28;20568;-74
2023/06/07 19:33:29;;;;;;;7.93;5.57;;;;;20.70;96280.00;;;;8273781;28;20747;-75
2023/06/07 19:37:34;;;;;;;6.43;5.72;;;;;20.70;96282.00;;;;8286897;28;20244;-74
2023/06/07 19:41:39;;;;;;;6.78;5.97;;;;;20.60;96286.00;;;;8277313;28;20265;-76
2023/06/07 19:45:43;;;;;;;8.18;5.68;;;;;20.50;96286.00;;;;8282566;28;20639;-73
2023/06/07 19:49:46;;;;;;;8.90;5.72;;;;;20.40;96290.00;;;;8274967;28;20651;-75
2023/06/07 19:53:51;;;;;;;6.35;5.80;;;;;20.30;96298.00;;;;8276478;28;20198;-75
2023/06/07 19:57:55;;;;;;;7.68;5.45;;;;;20.30;96297.00;;;;8287652;28;20195;-75
2023/06/07 20:02:03;;;;;;;8.00;5.30;;;;;20.20;96304.00;;;;8277583;28;20694;-74
2023/06/07 20:06:10;;;;;;;7.88;5.88;;;;;20.10;96297.00;;;;8278998;28;20241;-74
2023/06/07 20:10:16;;;;;;;13.63;6.53;;;;;20.00;96302.00;;;;8286081;28;20206;-74
2023/06/07 20:14:22;;;;;;;8.30;6.57;;;;;20.00;96303.00;;;;8281576;28;20210;-74
2023/06/07 20:18:26;;;;;;;8.43;5.82;;;;;19.80;96303.00;;;;8282122;28;20592;-75
2023/06/07 20:22:33;;;;;;;7.00;6.25;;;;;19.80;96310.00;;;;8278240;28;20205;-74
2023/06/07 20:26:38;;;;;;;7.82;6.88;;;;;19.70;96306.00;;;;8280522;28;20237;-75